createdAt,value
2022-10-25T00:01:53.694Z,56.67
2022-10-25T00:06:47.643Z,57.23
2022-10-25T00:09:14.156Z,56.62
2022-10-25T00:11:40.655Z,56.61
2022-10-25T00:14:08.032Z,57.23
2022-10-25T00:16:37.504Z,56.98
2022-10-25T00:19:04.998Z,56.97
2022-10-25T00:21:31.509Z,56.93
2022-10-25T00:23:58.063Z,56.95
2022-10-25T00:26:24.564Z,56.50
2022-10-25T00:28:54.448Z,56.83
2022-10-25T00:31:20.915Z,56.58
2022-10-25T00:33:47.449Z,56.59
2022-10-25T00:36:20.198Z,57.28
2022-10-25T00:38:46.989Z,56.56
2022-10-25T00:41:15.804Z,57.24
2022-10-25T00:43:45.193Z,56.67
2022-10-25T00:46:23.970Z,57.04
2022-10-25T00:49:02.970Z,56.58
2022-10-25T00:51:37.314Z,57.16
2022-10-25T00:54:04.452Z,57.23
2022-10-25T00:56:35.839Z,56.83
2022-10-25T00:59:06.613Z,57.02
2022-10-25T01:01:33.722Z,56.87
2022-10-25T01:04:04.738Z,56.94
2022-10-25T01:06:43.029Z,57.20
2022-10-25T01:09:13.641Z,57.18
2022-10-25T01:11:40.186Z,56.45
2022-10-25T01:14:09.205Z,56.75
2022-10-25T01:17:03.057Z,57.20
2022-10-25T01:19:42.219Z,57.01
2022-10-25T01:22:22.911Z,57.12
2022-10-25T01:25:30.905Z,57.24
2022-10-25T01:28:00.421Z,56.73
2022-10-25T01:30:58.319Z,57.25
2022-10-25T01:33:47.040Z,57.03
2022-10-25T01:36:30.391Z,57.35
2022-10-25T01:39:09.168Z,56.79
2022-10-25T01:41:55.884Z,56.66
2022-10-25T01:44:46.308Z,57.33
2022-10-25T01:47:19.834Z,57.43
2022-10-25T01:50:02.652Z,56.70
2022-10-25T01:52:29.145Z,57.29
2022-10-25T01:54:55.599Z,57.35
2022-10-25T01:57:34.228Z,56.74
2022-10-25T02:00:03.572Z,57.21
2022-10-25T02:02:44.713Z,56.77
2022-10-25T02:05:37.371Z,57.27
2022-10-25T02:08:32.778Z,57.40
2022-10-25T02:11:23.530Z,56.83
2022-10-25T02:14:05.856Z,57.17
2022-10-25T02:16:38.094Z,57.02
2022-10-25T02:19:08.805Z,57.09
2022-10-25T02:21:37.051Z,56.86
2022-10-25T02:24:16.125Z,56.74
2022-10-25T02:26:44.408Z,57.46
2022-10-25T02:29:12.531Z,56.70
2022-10-25T02:31:39.453Z,57.17
2022-10-25T02:34:06.347Z,57.37
2022-10-25T02:36:32.831Z,57.56
2022-10-25T02:39:00.098Z,57.28
2022-10-25T02:41:26.784Z,57.41
2022-10-25T02:43:53.264Z,57.46
2022-10-25T02:46:22.174Z,56.88
2022-10-25T02:48:49.522Z,56.80
2022-10-25T02:51:16.741Z,56.83
2022-10-25T02:53:43.663Z,57.38
2022-10-25T02:56:16.168Z,57.32
2022-10-25T02:58:44.067Z,57.46
2022-10-25T03:01:11.182Z,56.81
2022-10-25T03:03:37.986Z,57.34
2022-10-25T03:06:04.631Z,57.35
2022-10-25T03:08:31.129Z,57.20
2022-10-25T03:10:57.686Z,56.87
2022-10-25T03:13:24.270Z,56.75
2022-10-25T03:15:50.713Z,56.90
2022-10-25T03:18:17.675Z,57.04
2022-10-25T03:20:44.663Z,57.24
2022-10-25T03:23:12.236Z,56.85
2022-10-25T03:25:38.749Z,56.90
2022-10-25T03:28:05.379Z,56.83
2022-10-25T03:30:32.169Z,57.17
2022-10-25T03:32:58.951Z,57.05
2022-10-25T03:35:26.168Z,57.26
2022-10-25T03:37:52.864Z,57.40
2022-10-25T03:40:20.436Z,57.25
2022-10-25T03:42:47.067Z,56.92
2022-10-25T03:45:13.626Z,57.27
2022-10-25T03:47:40.472Z,56.92
2022-10-25T03:50:07.607Z,57.42
2022-10-25T03:52:34.449Z,57.21
2022-10-25T03:55:00.921Z,57.07
2022-10-25T03:57:27.376Z,56.73
2022-10-25T03:59:53.908Z,56.70
2022-10-25T04:02:20.521Z,57.06
2022-10-25T04:04:46.979Z,56.79
2022-10-25T04:07:13.419Z,57.38
2022-10-25T04:09:39.963Z,57.45
2022-10-25T04:12:06.447Z,56.93
2022-10-25T04:14:32.947Z,57.44
2022-10-25T04:16:59.408Z,57.43
2022-10-25T04:19:25.873Z,57.41
2022-10-25T04:21:52.351Z,57.52
2022-10-25T04:24:18.984Z,57.16
2022-10-25T04:26:45.472Z,56.96
2022-10-25T04:29:12.519Z,57.01
2022-10-25T04:31:38.988Z,57.08
2022-10-25T04:34:05.473Z,56.96
2022-10-25T04:36:32.005Z,57.62
2022-10-25T04:38:58.540Z,57.40
2022-10-25T04:41:25.009Z,57.00
2022-10-25T04:43:52.223Z,57.44
2022-10-25T04:46:19.736Z,56.60
2022-10-25T04:48:46.617Z,57.55
2022-10-25T04:51:14.019Z,57.21
2022-10-25T04:53:40.933Z,57.06
2022-10-25T04:56:10.035Z,56.92
2022-10-25T04:58:37.273Z,57.07
2022-10-25T05:01:10.282Z,57.55
2022-10-25T05:03:36.824Z,57.13
2022-10-25T05:06:17.352Z,57.13
2022-10-25T05:08:45.888Z,56.85
2022-10-25T05:11:13.808Z,57.68
2022-10-25T05:13:41.597Z,57.13
2022-10-25T05:16:11.160Z,57.42
2022-10-25T05:18:37.616Z,57.03
2022-10-25T05:21:05.817Z,57.02
2022-10-25T05:23:34.240Z,56.92
2022-10-25T05:26:08.029Z,57.27
2022-10-25T05:28:36.256Z,57.20
2022-10-25T05:31:07.874Z,57.06
2022-10-25T05:33:34.520Z,57.29
2022-10-25T05:36:02.175Z,56.91
2022-10-25T05:38:32.013Z,57.48
2022-10-25T05:41:00.842Z,57.22
2022-10-25T05:43:27.458Z,57.37
2022-10-25T05:46:21.590Z,57.06
2022-10-25T05:48:49.433Z,57.08
2022-10-25T05:51:33.130Z,56.82
2022-10-25T05:54:11.806Z,56.75
2022-10-25T05:56:39.048Z,56.74
2022-10-25T05:59:11.131Z,57.23
2022-10-25T06:01:40.258Z,57.72
2022-10-25T06:04:07.818Z,56.75
2022-10-25T06:06:34.920Z,57.24
2022-10-25T06:09:02.036Z,57.47
2022-10-25T06:11:30.030Z,56.76
2022-10-25T06:13:56.579Z,56.96
2022-10-25T06:16:23.389Z,56.92
2022-10-25T06:18:50.182Z,57.26
2022-10-25T06:21:19.555Z,57.47
2022-10-25T06:23:47.538Z,57.28
2022-10-25T06:26:17.370Z,56.81
2022-10-25T06:28:44.318Z,57.31
2022-10-25T06:31:16.296Z,57.31
2022-10-25T06:33:43.483Z,56.85
2022-10-25T06:36:16.353Z,57.01
2022-10-25T06:38:46.538Z,56.84
2022-10-25T06:41:15.806Z,57.27
2022-10-25T06:43:42.315Z,56.62
2022-10-25T06:46:18.023Z,57.51
2022-10-25T06:48:44.555Z,57.21
2022-10-25T06:51:11.017Z,56.87
2022-10-25T06:53:38.356Z,56.92
2022-10-25T06:56:09.431Z,56.88
2022-10-25T06:58:40.096Z,57.25
2022-10-25T07:01:10.090Z,57.40
2022-10-25T07:03:37.008Z,56.94
2022-10-25T07:06:11.891Z,56.86
2022-10-25T07:08:40.762Z,57.16
2022-10-25T07:11:09.111Z,56.89
2022-10-25T07:13:35.622Z,56.87
2022-10-25T07:16:07.593Z,56.92
2022-10-25T07:18:35.651Z,57.03
2022-10-25T07:21:03.869Z,57.01
2022-10-25T07:23:30.672Z,56.86
2022-10-25T07:25:58.034Z,56.98
2022-10-25T07:28:24.800Z,57.43
2022-10-25T07:30:51.593Z,56.77
2022-10-25T07:33:19.707Z,57.31
2022-10-25T07:35:59.046Z,56.94
2022-10-25T07:38:33.007Z,56.94
2022-10-25T07:40:59.860Z,56.93
2022-10-25T07:43:27.326Z,56.84
2022-10-25T07:45:54.218Z,56.87
2022-10-25T07:48:21.261Z,57.39
2022-10-25T07:50:48.184Z,56.95
2022-10-25T07:53:14.710Z,56.94
2022-10-25T07:55:41.183Z,56.83
2022-10-25T07:58:10.957Z,57.16
2022-10-25T08:00:37.466Z,57.28
2022-10-25T08:03:04.191Z,56.38
2022-10-25T08:05:30.796Z,56.54
2022-10-25T08:07:57.394Z,56.86
2022-10-25T08:10:23.970Z,56.95
2022-10-25T08:12:51.305Z,57.32
2022-10-25T08:15:18.353Z,57.48
2022-10-25T08:17:45.144Z,57.22
2022-10-25T08:20:12.376Z,56.76
2022-10-25T08:22:38.844Z,57.54
2022-10-25T08:25:05.867Z,57.32
2022-10-25T08:27:32.536Z,56.89
2022-10-25T08:29:59.076Z,57.13
2022-10-25T08:32:25.573Z,57.18
2022-10-25T08:34:52.032Z,57.02
2022-10-25T08:37:18.510Z,56.53
2022-10-25T08:39:44.995Z,57.25
2022-10-25T08:42:21.973Z,56.74
2022-10-25T08:45:04.143Z,56.79
2022-10-25T08:47:38.552Z,57.43
2022-10-25T08:50:37.093Z,56.99
2022-10-25T08:53:08.988Z,56.40
2022-10-25T08:55:41.798Z,57.18
2022-10-25T08:58:20.597Z,57.48
2022-10-25T09:00:49.064Z,56.76
2022-10-25T09:03:25.636Z,56.84
2022-10-25T09:06:14.426Z,57.15
2022-10-25T09:08:57.934Z,56.80
2022-10-25T09:11:30.245Z,56.59
2022-10-25T09:14:26.074Z,56.84
2022-10-25T09:16:57.206Z,56.91
2022-10-25T09:19:34.604Z,56.52
2022-10-25T09:22:05.429Z,57.10
2022-10-25T09:24:54.012Z,56.63
2022-10-25T09:27:48.482Z,56.61
2022-10-25T09:30:15.613Z,56.44
2022-10-25T09:32:44.727Z,56.75
2022-10-25T09:35:20.539Z,56.90
2022-10-25T09:37:55.491Z,56.62
2022-10-25T09:40:25.516Z,56.21
2022-10-25T09:43:01.422Z,56.34
2022-10-25T09:45:51.937Z,56.87
2022-10-25T09:48:27.603Z,56.89
2022-10-25T09:51:04.348Z,56.85
2022-10-25T09:53:33.177Z,56.04
2022-10-25T09:56:04.755Z,55.82
2022-10-25T09:58:38.828Z,56.60
2022-10-25T10:01:12.987Z,56.54
2022-10-25T10:03:41.229Z,55.76
2022-10-25T10:06:22.888Z,56.28
2022-10-25T10:08:53.155Z,56.22
2022-10-25T10:11:20.664Z,56.17
2022-10-25T10:14:06.137Z,56.50
2022-10-25T10:16:42.209Z,56.43
2022-10-25T10:19:19.331Z,56.13
2022-10-25T10:21:52.483Z,55.35
2022-10-25T10:24:34.795Z,56.14
2022-10-25T10:27:13.420Z,56.09
2022-10-25T10:29:58.007Z,55.51
2022-10-25T10:32:29.359Z,56.13
2022-10-25T10:34:58.219Z,55.98
2022-10-25T10:37:27.134Z,55.28
2022-10-25T10:39:53.638Z,55.98
2022-10-25T10:42:36.556Z,56.26
2022-10-25T10:45:07.826Z,55.72
2022-10-25T10:47:56.969Z,55.72
2022-10-25T10:50:24.264Z,56.06
2022-10-25T10:53:01.435Z,55.79
2022-10-25T10:55:36.775Z,55.79
2022-10-25T10:58:12.224Z,56.16
2022-10-25T11:00:38.949Z,55.48
2022-10-25T11:03:05.838Z,55.77
2022-10-25T11:05:37.811Z,56.25
2022-10-25T11:08:07.255Z,56.12
2022-10-25T11:10:35.503Z,55.73
2022-10-25T11:13:19.816Z,55.58
2022-10-25T11:16:04.954Z,56.41
2022-10-25T11:19:08.697Z,55.96
2022-10-25T11:21:53.883Z,56.08
2022-10-25T11:24:52.991Z,55.68
2022-10-25T11:27:36.700Z,56.09
2022-10-25T11:30:19.924Z,56.11
2022-10-25T11:33:03.631Z,56.13
2022-10-25T11:35:45.030Z,55.60
2022-10-25T11:38:23.710Z,55.88
2022-10-25T11:41:08.572Z,55.84
2022-10-25T11:44:02.580Z,55.54
2022-10-25T11:46:47.524Z,56.14
2022-10-25T11:49:34.173Z,55.88
2022-10-25T11:52:19.358Z,55.91
2022-10-25T11:54:57.917Z,56.10
2022-10-25T11:57:33.476Z,55.46
2022-10-25T12:00:19.001Z,55.42
2022-10-25T12:03:03.794Z,55.91
2022-10-25T12:05:42.473Z,55.60
2022-10-25T12:08:38.423Z,55.36
2022-10-25T12:11:11.837Z,55.55
2022-10-25T12:13:45.141Z,55.92
2022-10-25T12:16:15.980Z,55.40
2022-10-25T12:18:46.216Z,55.47
2022-10-25T12:21:20.087Z,55.50
2022-10-25T12:23:52.127Z,55.28
2022-10-25T12:26:45.396Z,55.50
2022-10-25T12:29:21.004Z,55.66
2022-10-25T12:31:56.637Z,55.46
2022-10-25T12:34:40.233Z,55.75
2022-10-25T12:37:14.875Z,55.45
2022-10-25T12:39:46.045Z,55.91
2022-10-25T12:42:27.101Z,55.47
2022-10-25T12:45:20.084Z,55.44
2022-10-25T12:48:03.870Z,55.47
2022-10-25T12:50:56.796Z,55.61
2022-10-25T12:53:45.076Z,55.74
2022-10-25T12:56:32.742Z,55.59
2022-10-25T12:59:25.787Z,55.06
2022-10-25T13:02:30.463Z,55.29
2022-10-25T13:05:50.952Z,54.91
2022-10-25T13:08:20.091Z,55.50
2022-10-25T13:10:56.450Z,54.98
2022-10-25T13:13:26.955Z,55.19
2022-10-25T13:15:58.820Z,55.27
2022-10-25T13:18:34.070Z,55.13
2022-10-25T13:21:02.731Z,55.33
2022-10-25T13:23:51.411Z,55.37
2022-10-25T13:26:20.073Z,55.31
2022-10-25T13:28:51.669Z,54.97
2022-10-25T13:31:36.465Z,54.97
2022-10-25T13:34:12.127Z,55.20
2022-10-25T13:36:55.864Z,55.25
2022-10-25T13:39:45.269Z,55.06
2022-10-25T13:42:14.481Z,55.14
2022-10-25T13:45:03.581Z,55.49
2022-10-25T13:47:36.693Z,55.20
2022-10-25T13:50:33.214Z,55.07
2022-10-25T13:53:05.236Z,55.38
2022-10-25T13:55:38.328Z,55.15
2022-10-25T13:58:31.960Z,54.74
2022-10-25T14:01:17.540Z,54.86
2022-10-25T14:03:51.197Z,55.03
2022-10-25T14:06:27.724Z,54.98
2022-10-25T14:09:19.661Z,55.26
2022-10-25T14:11:53.413Z,55.19
2022-10-25T14:14:27.448Z,54.74
2022-10-25T14:17:22.168Z,55.17
2022-10-25T14:19:52.432Z,55.05
2022-10-25T14:22:30.383Z,54.83
2022-10-25T14:25:03.039Z,55.39
2022-10-25T14:27:32.451Z,55.42
2022-10-25T14:30:20.378Z,55.20
2022-10-25T14:33:01.281Z,55.10
2022-10-25T14:38:27.744Z,55.09
2022-10-25T14:41:10.176Z,55.15
2022-10-25T14:43:38.179Z,54.90
2022-10-25T14:46:10.561Z,55.06
2022-10-25T14:48:37.159Z,54.87
2022-10-25T14:51:19.487Z,55.40
2022-10-25T14:54:12.196Z,54.88
2022-10-25T14:56:44.796Z,54.86
2022-10-25T14:59:22.204Z,55.11
2022-10-25T15:02:01.728Z,55.06
2022-10-25T15:04:32.531Z,55.40
2022-10-25T15:06:59.828Z,54.96
2022-10-25T15:09:43.231Z,54.98
2022-10-25T15:12:18.261Z,54.57
2022-10-25T15:14:47.648Z,55.23
2022-10-25T15:17:25.024Z,54.63
2022-10-25T15:20:00.539Z,54.45
2022-10-25T15:22:41.993Z,54.51
2022-10-25T15:25:22.164Z,54.95
2022-10-25T15:27:50.703Z,54.67
2022-10-25T15:30:39.791Z,54.61
2022-10-25T15:33:18.255Z,55.41
2022-10-25T15:36:11.147Z,55.31
2022-10-25T15:39:05.879Z,55.39
2022-10-25T15:41:24.166Z,55.45
2022-10-25T15:43:51.703Z,55.85
2022-10-25T15:46:28.418Z,55.94
2022-10-25T15:48:55.196Z,55.99
2022-10-25T15:51:22.433Z,56.09
2022-10-25T15:53:50.004Z,55.69
2022-10-25T15:56:19.398Z,56.54
2022-10-25T15:58:46.054Z,56.28
2022-10-25T16:01:12.833Z,56.08
2022-10-25T16:03:39.452Z,56.48
2022-10-25T16:06:06.203Z,55.87
2022-10-25T16:08:32.767Z,56.57
2022-10-25T16:10:59.492Z,56.28
2022-10-25T16:13:38.056Z,56.26
2022-10-25T16:16:21.917Z,56.14
2022-10-25T16:18:53.034Z,56.07
2022-10-25T16:21:21.205Z,56.23
2022-10-25T16:23:48.400Z,56.43
2022-10-25T16:26:33.661Z,56.89
2022-10-25T16:29:00.157Z,56.54
2022-10-25T16:31:26.699Z,56.66
2022-10-25T16:33:53.175Z,56.90
2022-10-25T16:36:20.559Z,57.26
2022-10-25T16:38:47.263Z,56.87
2022-10-25T16:41:34.042Z,56.90
2022-10-25T16:44:00.624Z,56.70
2022-10-25T16:46:27.256Z,56.37
2022-10-25T16:48:55.866Z,56.80
2022-10-25T16:51:28.812Z,56.42
2022-10-25T16:53:56.014Z,56.35
2022-10-25T16:56:22.912Z,56.62
2022-10-25T16:58:49.423Z,56.19
2022-10-25T17:01:44.771Z,56.54
2022-10-25T17:04:11.999Z,56.19
2022-10-25T17:06:42.595Z,56.03
2022-10-25T17:09:10.054Z,56.05
2022-10-25T17:11:36.613Z,55.95
2022-10-25T17:14:04.072Z,55.98
2022-10-25T17:16:30.981Z,56.30
2022-10-25T17:18:57.521Z,55.79
2022-10-25T17:21:24.125Z,55.59
2022-10-25T18:09:41.983Z,59.55
2022-10-25T18:12:09.529Z,59.17
2022-10-25T18:14:36.225Z,58.55
2022-10-25T18:17:03.354Z,58.86
2022-10-25T18:19:29.830Z,57.72
2022-10-25T18:22:00.347Z,57.85
2022-10-25T18:24:29.107Z,57.72
2022-10-25T18:26:56.130Z,57.51
2022-10-25T18:29:23.425Z,57.70
2022-10-25T18:31:50.021Z,57.24
2022-10-25T18:34:16.526Z,57.34
2022-10-25T18:36:42.987Z,56.97
2022-10-25T18:39:09.600Z,57.00
2022-10-25T18:41:36.243Z,56.65
2022-10-25T18:44:03.006Z,56.75
2022-10-25T18:46:31.829Z,56.72
